sensor_id;sensor_type;location;lat;lon;timestamp;P1;durP1;ratioP1;P2;durP2;ratioP2
14019;SDS011;7085;51.428;6.796;2023-06-24T03:01:30;4.82;;;3.97;;
14019;SDS011;7085;51.428;6.796;2023-06-24T03:03:59;5.32;;;3.88;;
14019;SDS011;7085;51.428;6.796;2023-06-24T03:06:26;5.30;;;4.30;;
14019;SDS011;7085;51.428;6.796;2023-06-24T03:08:53;7.07;;;4.38;;
14019;SDS011;7085;51.428;6.796;2023-06-24T03:11:21;5.82;;;4.05;;
14019;SDS011;7085;51.428;6.796;2023-06-24T03:13:48;5.53;;;3.97;;
14019;SDS011;7085;51.428;6.796;2023-06-24T03:16:15;6.22;;;5.07;;
14019;SDS011;7085;51.428;6.796;2023-06-24T03:18:43;4.80;;;4.15;;
14019;SDS011;7085;51.428;6.796;2023-06-24T03:21:10;4.70;;;4.30;;
14019;SDS011;7085;51.428;6.796;2023-06-24T03:23:37;4.75;;;4.25;;
14019;SDS011;7085;51.428;6.796;2023-06-24T03:26:05;6.82;;;4.28;;
14019;SDS011;7085;51.428;6.796;2023-06-24T03:28:33;5.22;;;4.15;;
14019;SDS011;7085;51.428;6.796;2023-06-24T03:31:00;8.63;;;4.68;;
14019;SDS011;7085;51.428;6.796;2023-06-24T03:33:28;5.32;;;4.53;;
14019;SDS011;7085;51.428;6.796;2023-06-24T03:35:56;5.18;;;4.20;;
14019;SDS011;7085;51.428;6.796;2023-06-24T03:38:23;5.07;;;4.28;;
14019;SDS011;7085;51.428;6.796;2023-06-24T03:40:50;4.97;;;3.83;;
14019;SDS011;7085;51.428;6.796;2023-06-24T03:43:17;5.20;;;3.88;;
14019;SDS011;7085;51.428;6.796;2023-06-24T03:45:44;4.90;;;4.50;;
14019;SDS011;7085;51.428;6.796;2023-06-24T03:48:12;6.05;;;5.15;;
14019;SDS011;7085;51.428;6.796;2023-06-24T03:50:39;4.97;;;4.40;;
14019;SDS011;7085;51.428;6.796;2023-06-24T03:53:08;6.53;;;4.70;;
14019;SDS011;7085;51.428;6.796;2023-06-24T03:55:35;4.80;;;4.00;;
14019;SDS011;7085;51.428;6.796;2023-06-24T03:58:02;10.45;;;4.55;;
14019;SDS011;7085;51.428;6.796;2023-06-24T04:00:29;10.00;;;4.68;;
14019;SDS011;7085;51.428;6.796;2023-06-24T04:02:56;6.90;;;4.60;;
14019;SDS011;7085;51.428;6.796;2023-06-24T04:05:26;5.30;;;4.47;;
14019;SDS011;7085;51.428;6.796;2023-06-24T04:07:54;5.20;;;4.45;;
14019;SDS011;7085;51.428;6.796;2023-06-24T04:10:22;7.72;;;4.30;;
14019;SDS011;7085;51.428;6.796;2023-06-24T04:12:49;6.72;;;4.60;;
14019;SDS011;7085;51.428;6.796;2023-06-24T04:15:16;8.00;;;5.38;;
14019;SDS011;7085;51.428;6.796;2023-06-24T04:17:43;4.85;;;4.10;;
14019;SDS011;7085;51.428;6.796;2023-06-24T04:20:11;8.73;;;4.97;;
14019;SDS011;7085;51.428;6.796;2023-06-24T04:22:39;4.97;;;4.20;;
14019;SDS011;7085;51.428;6.796;2023-06-24T04:25:07;8.05;;;4.40;;
14019;SDS011;7085;51.428;6.796;2023-06-24T04:27:35;7.07;;;5.22;;
14019;SDS011;7085;51.428;6.796;2023-06-24T04:30:03;6.32;;;4.80;;
14019;SDS011;7085;51.428;6.796;2023-06-24T04:32:30;6.85;;;5.10;;
14019;SDS011;7085;51.428;6.796;2023-06-24T04:34:57;6.55;;;4.75;;
14019;SDS011;7085;51.428;6.796;2023-06-24T04:37:25;7.53;;;4.65;;
14019;SDS011;7085;51.428;6.796;2023-06-24T04:39:52;6.72;;;4.75;;
14019;SDS011;7085;51.428;6.796;2023-06-24T04:42:19;6.68;;;5.13;;
14019;SDS011;7085;51.428;6.796;2023-06-24T04:44:49;7.65;;;5.80;;
14019;SDS011;7085;51.428;6.796;2023-06-24T04:47:16;5.95;;;5.07;;
14019;SDS011;7085;51.428;6.796;2023-06-24T04:49:43;5.68;;;5.10;;
14019;SDS011;7085;51.428;6.796;2023-06-24T04:52:11;7.70;;;4.97;;
14019;SDS011;7085;51.428;6.796;2023-06-24T04:54:38;8.75;;;5.70;;
14019;SDS011;7085;51.428;6.796;2023-06-24T04:57:06;7.40;;;5.88;;
14019;SDS011;7085;51.428;6.796;2023-06-24T04:59:33;6.95;;;5.10;;
14019;SDS011;7085;51.428;6.796;2023-06-24T05:02:02;8.27;;;5.70;;
14019;SDS011;7085;51.428;6.796;2023-06-24T05:04:29;8.18;;;5.32;;
14019;SDS011;7085;51.428;6.796;2023-06-24T05:06:56;9.55;;;5.43;;
14019;SDS011;7085;51.428;6.796;2023-06-24T05:09:23;9.02;;;4.97;;
14019;SDS011;7085;51.428;6.796;2023-06-24T05:11:50;6.43;;;4.80;;
14019;SDS011;7085;51.428;6.796;2023-06-24T05:14:17;7.25;;;5.35;;
14019;SDS011;7085;51.428;6.796;2023-06-24T05:16:44;7.68;;;5.65;;
14019;SDS011;7085;51.428;6.796;2023-06-24T05:19:13;10.07;;;5.80;;
14019;SDS011;7085;51.428;6.796;2023-06-24T05:21:41;8.35;;;5.03;;
14019;SDS011;7085;51.428;6.796;2023-06-24T05:24:08;7.65;;;5.20;;
14019;SDS011;7085;51.428;6.796;2023-06-24T05:26:35;7.80;;;5.40;;
14019;SDS011;7085;51.428;6.796;2023-06-24T05:29:02;7.72;;;5.78;;
14019;SDS011;7085;51.428;6.796;2023-06-24T05:31:29;7.65;;;5.78;;
14019;SDS011;7085;51.428;6.796;2023-06-24T05:33:56;9.57;;;6.05;;
14019;SDS011;7085;51.428;6.796;2023-06-24T05:36:24;7.85;;;6.25;;
14019;SDS011;7085;51.428;6.796;2023-06-24T05:38:52;10.93;;;6.03;;
14019;SDS011;7085;51.428;6.796;2023-06-24T05:41:19;7.38;;;5.75;;
14019;SDS011;7085;51.428;6.796;2023-06-24T05:43:46;7.65;;;5.95;;
14019;SDS011;7085;51.428;6.796;2023-06-24T05:46:13;9.15;;;5.85;;
14019;SDS011;7085;51.428;6.796;2023-06-24T05:48:40;8.75;;;6.53;;
14019;SDS011;7085;51.428;6.796;2023-06-24T05:51:07;8.70;;;6.40;;
14019;SDS011;7085;51.428;6.796;2023-06-24T05:53:35;9.60;;;6.78;;
14019;SDS011;7085;51.428;6.796;2023-06-24T05:56:02;10.05;;;6.35;;
14019;SDS011;7085;51.428;6.796;2023-06-24T05:58:30;10.70;;;6.53;;
14019;SDS011;7085;51.428;6.796;2023-06-24T06:00:57;8.70;;;6.55;;
14019;SDS011;7085;51.428;6.796;2023-06-24T06:03:25;7.90;;;7.00;;
14019;SDS011;7085;51.428;6.796;2023-06-24T06:05:52;8.93;;;6.47;;
14019;SDS011;7085;51.428;6.796;2023-06-24T06:08:19;12.02;;;7.35;;
14019;SDS011;7085;51.428;6.796;2023-06-24T06:10:47;9.30;;;7.10;;
14019;SDS011;7085;51.428;6.796;2023-06-24T06:13:14;11.80;;;7.05;;
14019;SDS011;7085;51.428;6.796;2023-06-24T06:15:42;10.75;;;7.40;;
14019;SDS011;7085;51.428;6.796;2023-06-24T06:18:09;8.82;;;7.57;;
14019;SDS011;7085;51.428;6.796;2023-06-24T06:20:36;10.48;;;8.60;;
14019;SDS011;7085;51.428;6.796;2023-06-24T06:23:03;10.43;;;7.85;;
14019;SDS011;7085;51.428;6.796;2023-06-24T06:25:30;8.82;;;7.57;;
14019;SDS011;7085;51.428;6.796;2023-06-24T06:27:58;10.88;;;8.25;;
14019;SDS011;7085;51.428;6.796;2023-06-24T06:30:25;8.80;;;7.63;;
14019;SDS011;7085;51.428;6.796;2023-06-24T06:32:52;10.63;;;8.50;;
14019;SDS011;7085;51.428;6.796;2023-06-24T06:35:19;10.18;;;7.72;;
14019;SDS011;7085;51.428;6.796;2023-06-24T06:37:46;14.40;;;7.88;;
14019;SDS011;7085;51.428;6.796;2023-06-24T06:40:17;11.65;;;8.95;;
14019;SDS011;7085;51.428;6.796;2023-06-24T06:42:44;14.57;;;9.45;;
14019;SDS011;7085;51.428;6.796;2023-06-24T06:45:13;11.38;;;9.90;;
14019;SDS011;7085;51.428;6.796;2023-06-24T06:47:40;10.00;;;8.85;;
14019;SDS011;7085;51.428;6.796;2023-06-24T06:50:07;10.35;;;9.23;;
14019;SDS011;7085;51.428;6.796;2023-06-24T06:52:34;11.43;;;8.80;;
14019;SDS011;7085;51.428;6.796;2023-06-24T06:55:03;12.25;;;9.40;;
14019;SDS011;7085;51.428;6.796;2023-06-24T06:57:30;11.93;;;9.07;;
14019;SDS011;7085;51.428;6.796;2023-06-24T06:59:57;13.00;;;10.10;;
14019;SDS011;7085;51.428;6.796;2023-06-24T07:02:26;13.23;;;9.95;;
14019;SDS011;7085;51.428;6.796;2023-06-24T07:04:53;12.75;;;9.32;;
14019;SDS011;7085;51.428;6.796;2023-06-24T07:07:20;11.60;;;9.15;;
14019;SDS011;7085;51.428;6.796;2023-06-24T07:09:47;10.80;;;9.70;;
14019;SDS011;7085;51.428;6.796;2023-06-24T07:12:14;12.77;;;9.45;;
14019;SDS011;7085;51.428;6.796;2023-06-24T07:14:41;16.15;;;11.15;;
14019;SDS011;7085;51.428;6.796;2023-06-24T07:17:08;12.77;;;10.25;;
14019;SDS011;7085;51.428;6.796;2023-06-24T07:19:36;15.00;;;9.25;;
14019;SDS011;7085;51.428;6.796;2023-06-24T07:22:04;16.17;;;9.80;;
14019;SDS011;7085;51.428;6.796;2023-06-24T07:24:31;11.27;;;10.13;;
14019;SDS011;7085;51.428;6.796;2023-06-24T07:26:58;16.75;;;10.48;;
14019;SDS011;7085;51.428;6.796;2023-06-24T07:29:25;12.55;;;9.88;;
14019;SDS011;7085;51.428;6.796;2023-06-24T07:31:52;12.48;;;9.38;;
14019;SDS011;7085;51.428;6.796;2023-06-24T07:34:19;14.43;;;9.88;;
14019;SDS011;7085;51.428;6.796;2023-06-24T07:36:47;15.38;;;9.43;;
14019;SDS011;7085;51.428;6.796;2023-06-24T07:39:15;15.10;;;10.52;;
14019;SDS011;7085;51.428;6.796;2023-06-24T07:41:42;13.48;;;10.23;;
14019;SDS011;7085;51.428;6.796;2023-06-24T07:44:10;11.63;;;9.43;;
14019;SDS011;7085;51.428;6.796;2023-06-24T07:46:37;12.88;;;9.52;;
14019;SDS011;7085;51.428;6.796;2023-06-24T07:49:04;11.80;;;9.95;;
14019;SDS011;7085;51.428;6.796;2023-06-24T07:51:31;12.77;;;9.20;;
14019;SDS011;7085;51.428;6.796;2023-06-24T07:54:01;12.48;;;9.32;;
14019;SDS011;7085;51.428;6.796;2023-06-24T07:56:28;10.25;;;8.23;;
14019;SDS011;7085;51.428;6.796;2023-06-24T07:58:55;11.07;;;8.95;;
14019;SDS011;7085;51.428;6.796;2023-06-24T08:01:22;12.93;;;8.00;;
14019;SDS011;7085;51.428;6.796;2023-06-24T08:03:49;12.68;;;8.20;;
14019;SDS011;7085;51.428;6.796;2023-06-24T08:06:16;10.82;;;8.43;;
14019;SDS011;7085;51.428;6.796;2023-06-24T08:08:43;11.93;;;7.57;;
14019;SDS011;7085;51.428;6.796;2023-06-24T08:11:13;8.30;;;7.20;;
14019;SDS011;7085;51.428;6.796;2023-06-24T08:13:41;9.15;;;7.28;;
14019;SDS011;7085;51.428;6.796;2023-06-24T08:16:08;6.47;;;5.75;;
14019;SDS011;7085;51.428;6.796;2023-06-24T08:18:35;7.30;;;6.03;;
14019;SDS011;7085;51.428;6.796;2023-06-24T08:21:02;8.23;;;6.45;;
14019;SDS011;7085;51.428;6.796;2023-06-24T08:23:29;7.57;;;5.70;;
14019;SDS011;7085;51.428;6.796;2023-06-24T08:25:57;7.15;;;5.50;;
14019;SDS011;7085;51.428;6.796;2023-06-24T08:28:25;7.10;;;5.80;;
14019;SDS011;7085;51.428;6.796;2023-06-24T08:30:52;8.38;;;5.93;;
14019;SDS011;7085;51.428;6.796;2023-06-24T08:33:19;6.13;;;5.50;;
14019;SDS011;7085;51.428;6.796;2023-06-24T08:35:46;5.72;;;4.72;;
14019;SDS011;7085;51.428;6.796;2023-06-24T08:38:13;8.02;;;5.50;;
14019;SDS011;7085;51.428;6.796;2023-06-24T08:40:41;8.60;;;5.88;;
14019;SDS011;7085;51.428;6.796;2023-06-24T08:43:08;8.05;;;6.18;;
14019;SDS011;7085;51.428;6.796;2023-06-24T08:45:37;5.53;;;4.47;;
14019;SDS011;7085;51.428;6.796;2023-06-24T08:48:04;5.05;;;4.38;;
14019;SDS011;7085;51.428;6.796;2023-06-24T08:50:33;6.15;;;4.70;;
14019;SDS011;7085;51.428;6.796;2023-06-24T08:53:00;6.30;;;4.75;;
14019;SDS011;7085;51.428;6.796;2023-06-24T08:55:29;6.53;;;4.85;;
14019;SDS011;7085;51.428;6.796;2023-06-24T08:57:58;5.75;;;4.75;;
14019;SDS011;7085;51.428;6.796;2023-06-24T09:00:25;7.03;;;4.78;;
14019;SDS011;7085;51.428;6.796;2023-06-24T09:02:54;7.07;;;4.53;;
14019;SDS011;7085;51.428;6.796;2023-06-24T09:05:23;9.00;;;5.32;;
14019;SDS011;7085;51.428;6.796;2023-06-24T09:07:50;4.20;;;3.28;;
14019;SDS011;7085;51.428;6.796;2023-06-24T09:10:30;5.32;;;3.70;;
14019;SDS011;7085;51.428;6.796;2023-06-24T09:12:57;4.68;;;4.03;;
14019;SDS011;7085;51.428;6.796;2023-06-24T09:15:24;5.78;;;3.33;;
14019;SDS011;7085;51.428;6.796;2023-06-24T09:17:53;5.13;;;3.13;;
14019;SDS011;7085;51.428;6.796;2023-06-24T09:20:20;3.80;;;3.40;;
14019;SDS011;7085;51.428;6.796;2023-06-24T09:22:47;3.35;;;2.80;;
14019;SDS011;7085;51.428;6.796;2023-06-24T09:25:16;5.35;;;4.13;;
14019;SDS011;7085;51.428;6.796;2023-06-24T09:27:46;5.25;;;3.50;;
14019;SDS011;7085;51.428;6.796;2023-06-24T09:30:17;3.80;;;2.75;;
14019;SDS011;7085;51.428;6.796;2023-06-24T09:32:45;2.97;;;2.55;;
14019;SDS011;7085;51.428;6.796;2023-06-24T09:35:13;5.35;;;2.55;;
14019;SDS011;7085;51.428;6.796;2023-06-24T09:37:41;5.80;;;3.47;;
14019;SDS011;7085;51.428;6.796;2023-06-24T09:40:08;5.13;;;3.22;;
14019;SDS011;7085;51.428;6.796;2023-06-24T09:42:35;6.78;;;3.58;;
14019;SDS011;7085;51.428;6.796;2023-06-24T09:45:04;5.32;;;3.25;;
14019;SDS011;7085;51.428;6.796;2023-06-24T09:47:31;6.22;;;3.08;;
14019;SDS011;7085;51.428;6.796;2023-06-24T09:49:58;5.13;;;3.42;;
14019;SDS011;7085;51.428;6.796;2023-06-24T09:52:27;4.22;;;3.22;;
14019;SDS011;7085;51.428;6.796;2023-06-24T09:54:55;2.83;;;2.58;;
14019;SDS011;7085;51.428;6.796;2023-06-24T09:57:23;5.90;;;3.40;;
14019;SDS011;7085;51.428;6.796;2023-06-24T09:59:52;6.90;;;3.05;;
14019;SDS011;7085;51.428;6.796;2023-06-24T10:02:19;4.03;;;2.67;;
14019;SDS011;7085;51.428;6.796;2023-06-24T10:04:47;5.43;;;2.70;;
14019;SDS011;7085;51.428;6.796;2023-06-24T10:07:15;3.33;;;2.60;;
14019;SDS011;7085;51.428;6.796;2023-06-24T10:09:44;4.05;;;2.70;;
14019;SDS011;7085;51.428;6.796;2023-06-24T10:12:11;5.68;;;3.70;;
14019;SDS011;7085;51.428;6.796;2023-06-24T10:14:38;4.40;;;3.10;;
14019;SDS011;7085;51.428;6.796;2023-06-24T10:17:05;3.03;;;2.50;;
14019;SDS011;7085;51.428;6.796;2023-06-24T10:19:37;2.22;;;2.03;;
14019;SDS011;7085;51.428;6.796;2023-06-24T10:22:07;7.35;;;3.95;;
14019;SDS011;7085;51.428;6.796;2023-06-24T10:24:35;4.07;;;3.40;;
14019;SDS011;7085;51.428;6.796;2023-06-24T10:27:06;4.50;;;3.10;;
14019;SDS011;7085;51.428;6.796;2023-06-24T10:29:34;3.80;;;3.00;;
14019;SDS011;7085;51.428;6.796;2023-06-24T10:32:05;3.38;;;2.40;;
14019;SDS011;7085;51.428;6.796;2023-06-24T10:34:33;3.22;;;2.35;;
14019;SDS011;7085;51.428;6.796;2023-06-24T10:37:01;3.03;;;2.53;;
14019;SDS011;7085;51.428;6.796;2023-06-24T10:39:38;1.70;;;1.60;;
14019;SDS011;7085;51.428;6.796;2023-06-24T10:44:53;4.82;;;2.78;;
14019;SDS011;7085;51.428;6.796;2023-06-24T10:47:21;3.55;;;2.58;;
14019;SDS011;7085;51.428;6.796;2023-06-24T10:49:48;3.60;;;2.90;;
14019;SDS011;7085;51.428;6.796;2023-06-24T10:52:16;6.63;;;2.67;;
14019;SDS011;7085;51.428;6.796;2023-06-24T10:54:44;3.35;;;2.78;;
14019;SDS011;7085;51.428;6.796;2023-06-24T10:57:12;4.78;;;3.30;;
14019;SDS011;7085;51.428;6.796;2023-06-24T10:59:39;4.47;;;3.30;;
14019;SDS011;7085;51.428;6.796;2023-06-24T11:02:08;3.28;;;2.47;;
14019;SDS011;7085;51.428;6.796;2023-06-24T11:04:42;3.72;;;2.70;;
14019;SDS011;7085;51.428;6.796;2023-06-24T11:07:09;3.38;;;2.30;;
14019;SDS011;7085;51.428;6.796;2023-06-24T11:09:37;3.28;;;2.85;;
14019;SDS011;7085;51.428;6.796;2023-06-24T11:12:04;4.82;;;2.40;;
14019;SDS011;7085;51.428;6.796;2023-06-24T11:14:32;3.53;;;2.97;;
14019;SDS011;7085;51.428;6.796;2023-06-24T11:17:00;2.90;;;2.38;;
14019;SDS011;7085;51.428;6.796;2023-06-24T11:19:29;3.67;;;2.75;;
14019;SDS011;7085;51.428;6.796;2023-06-24T11:21:59;2.65;;;2.10;;
14019;SDS011;7085;51.428;6.796;2023-06-24T11:24:26;4.63;;;2.58;;
14019;SDS011;7085;51.428;6.796;2023-06-24T11:26:53;3.17;;;2.60;;
14019;SDS011;7085;51.428;6.796;2023-06-24T11:29:20;3.33;;;2.33;;
14019;SDS011;7085;51.428;6.796;2023-06-24T11:31:47;3.80;;;2.60;;
14019;SDS011;7085;51.428;6.796;2023-06-24T11:34:15;2.50;;;2.30;;
14019;SDS011;7085;51.428;6.796;2023-06-24T11:36:43;3.03;;;2.45;;
14019;SDS011;7085;51.428;6.796;2023-06-24T11:39:19;3.13;;;2.22;;
14019;SDS011;7085;51.428;6.796;2023-06-24T11:41:47;3.25;;;2.28;;
14019;SDS011;7085;51.428;6.796;2023-06-24T11:44:14;3.70;;;2.30;;
14019;SDS011;7085;51.428;6.796;2023-06-24T11:46:41;3.70;;;3.22;;
14019;SDS011;7085;51.428;6.796;2023-06-24T11:49:08;5.97;;;4.13;;
14019;SDS011;7085;51.428;6.796;2023-06-24T11:51:36;5.63;;;3.50;;
14019;SDS011;7085;51.428;6.796;2023-06-24T11:54:08;2.78;;;2.33;;
14019;SDS011;7085;51.428;6.796;2023-06-24T11:56:35;4.70;;;2.30;;
14019;SDS011;7085;51.428;6.796;2023-06-24T11:59:03;3.17;;;2.30;;
14019;SDS011;7085;51.428;6.796;2023-06-24T12:01:31;3.10;;;2.45;;
14019;SDS011;7085;51.428;6.796;2023-06-24T12:03:59;2.80;;;2.50;;
14019;SDS011;7085;51.428;6.796;2023-06-24T12:06:27;4.18;;;2.20;;
14019;SDS011;7085;51.428;6.796;2023-06-24T12:08:54;2.10;;;1.90;;
14019;SDS011;7085;51.428;6.796;2023-06-24T12:11:22;2.70;;;1.92;;
14019;SDS011;7085;51.428;6.796;2023-06-24T12:13:49;4.10;;;2.28;;
14019;SDS011;7085;51.428;6.796;2023-06-24T12:16:18;2.65;;;2.22;;
14019;SDS011;7085;51.428;6.796;2023-06-24T12:18:45;4.32;;;2.88;;
14019;SDS011;7085;51.428;6.796;2023-06-24T12:21:12;2.90;;;2.30;;
14019;SDS011;7085;51.428;6.796;2023-06-24T12:23:39;2.60;;;2.40;;
14019;SDS011;7085;51.428;6.796;2023-06-24T12:26:06;3.08;;;2.38;;
14019;SDS011;7085;51.428;6.796;2023-06-24T12:28:34;2.63;;;2.30;;
14019;SDS011;7085;51.428;6.796;2023-06-24T12:31:01;2.50;;;2.28;;
14019;SDS011;7085;51.428;6.796;2023-06-24T12:33:28;2.45;;;1.90;;
14019;SDS011;7085;51.428;6.796;2023-06-24T12:35:55;4.57;;;2.47;;
14019;SDS011;7085;51.428;6.796;2023-06-24T12:38:22;2.40;;;2.20;;
14019;SDS011;7085;51.428;6.796;2023-06-24T12:40:49;2.30;;;2.10;;
14019;SDS011;7085;51.428;6.796;2023-06-24T12:43:17;3.40;;;2.10;;
14019;SDS011;7085;51.428;6.796;2023-06-24T12:45:46;2.80;;;2.03;;
14019;SDS011;7085;51.428;6.796;2023-06-24T12:48:13;3.20;;;2.10;;
14019;SDS011;7085;51.428;6.796;2023-06-24T12:50:40;2.25;;;2.03;;
14019;SDS011;7085;51.428;6.796;2023-06-24T12:53:07;1.90;;;1.77;;
14019;SDS011;7085;51.428;6.796;2023-06-24T12:55:35;2.25;;;1.83;;
14019;SDS011;7085;51.428;6.796;2023-06-24T12:58:02;2.60;;;2.10;;
14019;SDS011;7085;51.428;6.796;2023-06-24T13:00:29;3.55;;;2.15;;
14019;SDS011;7085;51.428;6.796;2023-06-24T13:02:58;2.10;;;1.90;;
14019;SDS011;7085;51.428;6.796;2023-06-24T13:05:25;1.63;;;1.30;;
14019;SDS011;7085;51.428;6.796;2023-06-24T13:07:52;2.20;;;2.00;;
14019;SDS011;7085;51.428;6.796;2023-06-24T13:10:20;2.10;;;2.00;;
14019;SDS011;7085;51.428;6.796;2023-06-24T13:12:47;1.85;;;1.63;;
14019;SDS011;7085;51.428;6.796;2023-06-24T13:15:14;3.15;;;1.88;;
14019;SDS011;7085;51.428;6.796;2023-06-24T13:17:41;2.75;;;2.03;;
14019;SDS011;7085;51.428;6.796;2023-06-24T13:20:10;3.15;;;1.98;;
14019;SDS011;7085;51.428;6.796;2023-06-24T13:22:37;2.05;;;1.85;;
14019;SDS011;7085;51.428;6.796;2023-06-24T13:25:04;2.50;;;2.30;;
14019;SDS011;7085;51.428;6.796;2023-06-24T13:27:32;2.63;;;2.08;;
14019;SDS011;7085;51.428;6.796;2023-06-24T13:29:59;4.78;;;1.90;;
14019;SDS011;7085;51.428;6.796;2023-06-24T13:32:26;2.33;;;1.77;;
14019;SDS011;7085;51.428;6.796;2023-06-24T13:34:53;4.43;;;1.88;;
14019;SDS011;7085;51.428;6.796;2023-06-24T13:37:21;2.60;;;1.65;;
14019;SDS011;7085;51.428;6.796;2023-06-24T13:39:50;2.85;;;1.92;;
14019;SDS011;7085;51.428;6.796;2023-06-24T13:42:17;2.25;;;2.05;;
14019;SDS011;7085;51.428;6.796;2023-06-24T13:44:44;3.15;;;1.75;;
14019;SDS011;7085;51.428;6.796;2023-06-24T13:47:11;1.95;;;1.75;;
14019;SDS011;7085;51.428;6.796;2023-06-24T13:49:38;3.13;;;2.78;;
14019;SDS011;7085;51.428;6.796;2023-06-24T13:52:06;1.75;;;1.65;;
14019;SDS011;7085;51.428;6.796;2023-06-24T13:54:34;1.80;;;1.65;;
14019;SDS011;7085;51.428;6.796;2023-06-24T13:57:01;2.15;;;2.00;;
14019;SDS011;7085;51.428;6.796;2023-06-24T13:59:28;2.17;;;1.65;;
14019;SDS011;7085;51.428;6.796;2023-06-24T14:01:55;1.95;;;1.77;;
14019;SDS011;7085;51.428;6.796;2023-06-24T14:04:22;2.28;;;1.83;;
14019;SDS011;7085;51.428;6.796;2023-06-24T14:06:49;1.73;;;1.63;;
14019;SDS011;7085;51.428;6.796;2023-06-24T14:09:18;2.22;;;1.90;;
14019;SDS011;7085;51.428;6.796;2023-06-24T14:11:46;3.00;;;1.92;;
14019;SDS011;7085;51.428;6.796;2023-06-24T14:14:14;2.42;;;1.80;;
14019;SDS011;7085;51.428;6.796;2023-06-24T14:16:41;1.50;;;1.38;;
14019;SDS011;7085;51.428;6.796;2023-06-24T14:19:08;2.20;;;1.63;;
14019;SDS011;7085;51.428;6.796;2023-06-24T14:21:35;1.63;;;1.50;;
14019;SDS011;7085;51.428;6.796;2023-06-24T14:24:02;2.10;;;1.90;;
14019;SDS011;7085;51.428;6.796;2023-06-24T14:26:30;4.40;;;1.88;;
14019;SDS011;7085;51.428;6.796;2023-06-24T14:28:58;1.83;;;1.60;;
14019;SDS011;7085;51.428;6.796;2023-06-24T14:31:26;2.13;;;1.88;;
14019;SDS011;7085;51.428;6.796;2023-06-24T14:33:53;2.17;;;1.88;;
14019;SDS011;7085;51.428;6.796;2023-06-24T14:36:20;2.05;;;1.85;;
14019;SDS011;7085;51.428;6.796;2023-06-24T14:38:47;3.15;;;1.98;;
14019;SDS011;7085;51.428;6.796;2023-06-24T14:41:14;1.88;;;1.67;;
14019;SDS011;7085;51.428;6.796;2023-06-24T14:43:41;2.00;;;1.65;;
14019;SDS011;7085;51.428;6.796;2023-06-24T14:46:10;2.00;;;1.80;;
14019;SDS011;7085;51.428;6.796;2023-06-24T14:48:37;2.15;;;1.60;;
14019;SDS011;7085;51.428;6.796;2023-06-24T14:51:04;2.70;;;1.77;;
14019;SDS011;7085;51.428;6.796;2023-06-24T14:53:31;2.33;;;1.88;;
14019;SDS011;7085;51.428;6.796;2023-06-24T14:55:58;3.17;;;2.58;;
14019;SDS011;7085;51.428;6.796;2023-06-24T14:58:25;2.58;;;1.80;;
14019;SDS011;7085;51.428;6.796;2023-06-24T15:00:52;2.67;;;2.45;;
14019;SDS011;7085;51.428;6.796;2023-06-24T15:03:20;3.00;;;2.70;;
14019;SDS011;7085;51.428;6.796;2023-06-24T15:05:47;2.10;;;1.67;;
14019;SDS011;7085;51.428;6.796;2023-06-24T15:08:14;1.80;;;1.58;;
14019;SDS011;7085;51.428;6.796;2023-06-24T15:10:41;1.60;;;1.50;;
14019;SDS011;7085;51.428;6.796;2023-06-24T15:13:08;1.60;;;1.50;;
14019;SDS011;7085;51.428;6.796;2023-06-24T15:15:35;2.20;;;1.70;;
14019;SDS011;7085;51.428;6.796;2023-06-24T15:18:02;1.98;;;1.80;;
14019;SDS011;7085;51.428;6.796;2023-06-24T15:20:32;1.80;;;1.52;;
14019;SDS011;7085;51.428;6.796;2023-06-24T15:22:59;2.63;;;2.13;;
14019;SDS011;7085;51.428;6.796;2023-06-24T15:25:26;2.97;;;2.50;;
14019;SDS011;7085;51.428;6.796;2023-06-24T15:27:53;3.35;;;2.35;;
14019;SDS011;7085;51.428;6.796;2023-06-24T15:30:20;2.28;;;2.08;;
14019;SDS011;7085;51.428;6.796;2023-06-24T15:32:49;3.08;;;2.35;;
14019;SDS011;7085;51.428;6.796;2023-06-24T15:35:16;2.30;;;1.88;;
14019;SDS011;7085;51.428;6.796;2023-06-24T15:37:45;2.13;;;1.70;;
14019;SDS011;7085;51.428;6.796;2023-06-24T15:40:12;2.05;;;1.60;;
14019;SDS011;7085;51.428;6.796;2023-06-24T15:42:39;2.28;;;1.88;;
14019;SDS011;7085;51.428;6.796;2023-06-24T15:45:06;3.70;;;3.30;;
14019;SDS011;7085;51.428;6.796;2023-06-24T15:47:33;3.72;;;2.72;;
14019;SDS011;7085;51.428;6.796;2023-06-24T15:50:00;2.60;;;2.30;;
14019;SDS011;7085;51.428;6.796;2023-06-24T15:52:27;3.25;;;2.15;;
14019;SDS011;7085;51.428;6.796;2023-06-24T15:54:55;5.38;;;2.35;;
14019;SDS011;7085;51.428;6.796;2023-06-24T15:57:22;2.08;;;1.85;;
14019;SDS011;7085;51.428;6.796;2023-06-24T15:59:49;2.28;;;2.08;;
14019;SDS011;7085;51.428;6.796;2023-06-24T16:02:16;2.28;;;2.05;;
14019;SDS011;7085;51.428;6.796;2023-06-24T16:04:44;2.63;;;2.00;;
14019;SDS011;7085;51.428;6.796;2023-06-24T16:07:11;2.50;;;1.67;;
14019;SDS011;7085;51.428;6.796;2023-06-24T16:09:38;2.42;;;2.15;;
14019;SDS011;7085;51.428;6.796;2023-06-24T16:12:07;2.17;;;1.90;;
14019;SDS011;7085;51.428;6.796;2023-06-24T16:14:34;2.28;;;1.88;;
14019;SDS011;7085;51.428;6.796;2023-06-24T16:17:01;3.65;;;2.05;;
14019;SDS011;7085;51.428;6.796;2023-06-24T16:19:28;2.03;;;1.60;;
14019;SDS011;7085;51.428;6.796;2023-06-24T16:21:55;1.70;;;1.60;;
14019;SDS011;7085;51.428;6.796;2023-06-24T16:24:22;3.58;;;2.13;;
14019;SDS011;7085;51.428;6.796;2023-06-24T16:26:50;1.60;;;1.50;;
14019;SDS011;7085;51.428;6.796;2023-06-24T16:29:18;2.70;;;1.83;;
14019;SDS011;7085;51.428;6.796;2023-06-24T16:31:45;3.45;;;1.88;;
14019;SDS011;7085;51.428;6.796;2023-06-24T16:34:12;2.90;;;2.05;;
14019;SDS011;7085;51.428;6.796;2023-06-24T16:36:40;2.63;;;2.10;;
14019;SDS011;7085;51.428;6.796;2023-06-24T16:39:07;2.25;;;1.63;;
14019;SDS011;7085;51.428;6.796;2023-06-24T16:41:34;4.47;;;2.17;;
14019;SDS011;7085;51.428;6.796;2023-06-24T16:44:01;2.13;;;1.75;;
14019;SDS011;7085;51.428;6.796;2023-06-24T16:46:29;2.25;;;2.00;;
14019;SDS011;7085;51.428;6.796;2023-06-24T16:48:56;2.63;;;2.00;;
14019;SDS011;7085;51.428;6.796;2023-06-24T16:51:28;2.03;;;1.85;;
14019;SDS011;7085;51.428;6.796;2023-06-24T16:53:55;3.17;;;2.08;;
14019;SDS011;7085;51.428;6.796;2023-06-24T16:56:22;3.60;;;1.85;;
14019;SDS011;7085;51.428;6.796;2023-06-24T16:58:49;2.70;;;2.13;;
14019;SDS011;7085;51.428;6.796;2023-06-24T17:01:16;2.30;;;2.00;;
14019;SDS011;7085;51.428;6.796;2023-06-24T17:03:45;3.80;;;2.25;;
14019;SDS011;7085;51.428;6.796;2023-06-24T17:06:12;2.45;;;2.10;;
14019;SDS011;7085;51.428;6.796;2023-06-24T17:08:39;2.28;;;2.00;;
14019;SDS011;7085;51.428;6.796;2023-06-24T17:11:06;1.60;;;1.50;;
14019;SDS011;7085;51.428;6.796;2023-06-24T17:13:33;2.30;;;2.08;;
14019;SDS011;7085;51.428;6.796;2023-06-24T17:16:00;5.00;;;1.95;;
14019;SDS011;7085;51.428;6.796;2023-06-24T17:18:27;2.88;;;1.85;;
14019;SDS011;7085;51.428;6.796;2023-06-24T17:20:56;2.00;;;1.80;;
14019;SDS011;7085;51.428;6.796;2023-06-24T17:23:23;3.47;;;1.92;;
14019;SDS011;7085;51.428;6.796;2023-06-24T17:25:50;2.35;;;1.92;;
14019;SDS011;7085;51.428;6.796;2023-06-24T17:28:17;2.72;;;2.22;;
14019;SDS011;7085;51.428;6.796;2023-06-24T17:30:44;3.03;;;2.13;;
14019;SDS011;7085;51.428;6.796;2023-06-24T17:33:11;2.13;;;1.77;;
14019;SDS011;7085;51.428;6.796;2023-06-24T17:35:38;3.55;;;2.13;;
14019;SDS011;7085;51.428;6.796;2023-06-24T17:38:06;3.05;;;2.20;;
14019;SDS011;7085;51.428;6.796;2023-06-24T17:40:33;2.70;;;2.13;;
14019;SDS011;7085;51.428;6.796;2023-06-24T17:43:01;2.42;;;1.70;;
14019;SDS011;7085;51.428;6.796;2023-06-24T17:45:28;4.05;;;2.10;;
14019;SDS011;7085;51.428;6.796;2023-06-24T17:47:55;3.13;;;2.40;;
14019;SDS011;7085;51.428;6.796;2023-06-24T17:50:22;3.58;;;2.38;;
14019;SDS011;7085;51.428;6.796;2023-06-24T17:52:49;3.38;;;2.10;;
14019;SDS011;7085;51.428;6.796;2023-06-24T17:55:18;4.10;;;2.35;;
14019;SDS011;7085;51.428;6.796;2023-06-24T17:57:45;3.78;;;2.63;;
14019;SDS011;7085;51.428;6.796;2023-06-24T18:00:12;3.13;;;2.10;;
14019;SDS011;7085;51.428;6.796;2023-06-24T18:02:39;2.30;;;2.10;;
14019;SDS011;7085;51.428;6.796;2023-06-24T18:05:07;3.70;;;2.35;;